world map with LIVF marked

LIVF - Location

This information may not be accurate or current and is not valid for navigation or flight planning. No warranty of fitness for any purpose is made or implied.

flag of Italy

Donate via PayPal

Additional information is available on the NEW Great Circle Mapper

Location
City:  Frontone, Italy
ICAO:LIVF

Details
Latitude:43°31'N (43.517)
Longitude:12°44'E (12.733)

Time
Timezone:UTC+1 (DST+4)
Local Time:

Weather
METAR:LIVF  041255Z 35007KT 8000 SCT012 BKN025 06/04 Q1019 RMK OVC MON S W CIME INC VAL FOSCHIA VIS MIN 8000

Related Locations
Nearby:
Farthest:CHT: 11980 mi / 19280 km
Waitangi [Tuuta], CIT, NZ

Find:

   beyond  
but within

Other Information
Maps:
Sources:

  


 


Great Circle Mapper   Great Circle Mapper
Great Circle Mapper FAQ   Great Circle Mapper FAQ
  Karl's Home Page
KLSē   KLSē Home
   GC on Facebook
Airlines of the World   Airlines of the World
Donate via PayPal


Copyright © 2004-2019, Karl L. Swartz. All rights reserved.
All trademarks mentioned herein belong to their respective owners.

Please see credits for attribution and copyright information.

Karl Swartz <karl@kls2.com>
  Powered by FreeBSD
Valid HTML 4.01!
Labeled with ICRA
hCard Microformat
Geo Microformat